sensor_id;sensor_type;location;lat;lon;timestamp;P1;durP1;ratioP1;P2;durP2;ratioP2
18407;SDS011;9330;52.210;21.174;2023-10-19T00:00:21;35.95;;;24.42;;
18407;SDS011;9330;52.210;21.174;2023-10-19T00:02:48;33.45;;;23.52;;
18407;SDS011;9330;52.210;21.174;2023-10-19T00:05:18;31.83;;;23.25;;
18407;SDS011;9330;52.210;21.174;2023-10-19T00:07:45;33.88;;;24.20;;
18407;SDS011;9330;52.210;21.174;2023-10-19T00:10:11;36.70;;;24.42;;
18407;SDS011;9330;52.210;21.174;2023-10-19T00:12:41;37.40;;;25.15;;
18407;SDS011;9330;52.210;21.174;2023-10-19T00:15:09;37.90;;;25.55;;
18407;SDS011;9330;52.210;21.174;2023-10-19T00:17:37;38.85;;;26.17;;
18407;SDS011;9330;52.210;21.174;2023-10-19T00:20:04;36.45;;;25.95;;
18407;SDS011;9330;52.210;21.174;2023-10-19T00:22:56;37.78;;;26.35;;
18407;SDS011;9330;52.210;21.174;2023-10-19T00:25:23;40.38;;;27.13;;
18407;SDS011;9330;52.210;21.174;2023-10-19T00:27:50;39.80;;;27.60;;
18407;SDS011;9330;52.210;21.174;2023-10-19T00:30:17;38.20;;;26.77;;
18407;SDS011;9330;52.210;21.174;2023-10-19T00:32:48;41.70;;;28.55;;
18407;SDS011;9330;52.210;21.174;2023-10-19T00:35:17;41.38;;;28.17;;
18407;SDS011;9330;52.210;21.174;2023-10-19T00:38:00;37.78;;;26.77;;
18407;SDS011;9330;52.210;21.174;2023-10-19T00:40:49;38.58;;;28.20;;
18407;SDS011;9330;52.210;21.174;2023-10-19T00:43:25;40.28;;;28.13;;
18407;SDS011;9330;52.210;21.174;2023-10-19T00:45:53;43.50;;;29.55;;
18407;SDS011;9330;52.210;21.174;2023-10-19T00:48:20;41.13;;;27.95;;
18407;SDS011;9330;52.210;21.174;2023-10-19T00:50:51;41.80;;;28.92;;
18407;SDS011;9330;52.210;21.174;2023-10-19T00:53:33;37.13;;;26.98;;
18407;SDS011;9330;52.210;21.174;2023-10-19T00:56:01;35.25;;;26.13;;
18407;SDS011;9330;52.210;21.174;2023-10-19T00:58:31;41.05;;;28.58;;
18407;SDS011;9330;52.210;21.174;2023-10-19T01:01:01;40.83;;;28.00;;
18407;SDS011;9330;52.210;21.174;2023-10-19T01:03:30;43.85;;;28.80;;
18407;SDS011;9330;52.210;21.174;2023-10-19T01:06:01;38.83;;;28.95;;
18407;SDS011;9330;52.210;21.174;2023-10-19T01:08:36;39.47;;;28.95;;
18407;SDS011;9330;52.210;21.174;2023-10-19T01:11:07;37.90;;;26.88;;
18407;SDS011;9330;52.210;21.174;2023-10-19T01:13:37;44.92;;;29.67;;
18407;SDS011;9330;52.210;21.174;2023-10-19T01:16:11;41.83;;;29.65;;
18407;SDS011;9330;52.210;21.174;2023-10-19T01:18:45;43.05;;;29.95;;
18407;SDS011;9330;52.210;21.174;2023-10-19T01:21:13;45.05;;;29.95;;
18407;SDS011;9330;52.210;21.174;2023-10-19T01:23:45;41.75;;;29.65;;
18407;SDS011;9330;52.210;21.174;2023-10-19T01:26:13;45.33;;;31.23;;
18407;SDS011;9330;52.210;21.174;2023-10-19T01:28:43;46.85;;;30.70;;
18407;SDS011;9330;52.210;21.174;2023-10-19T01:31:14;43.55;;;30.92;;
18407;SDS011;9330;52.210;21.174;2023-10-19T01:33:47;42.65;;;31.55;;
18407;SDS011;9330;52.210;21.174;2023-10-19T01:36:15;45.38;;;32.08;;
18407;SDS011;9330;52.210;21.174;2023-10-19T01:38:51;44.15;;;31.23;;
18407;SDS011;9330;52.210;21.174;2023-10-19T01:41:19;43.47;;;31.63;;
18407;SDS011;9330;52.210;21.174;2023-10-19T01:43:47;47.70;;;32.35;;
18407;SDS011;9330;52.210;21.174;2023-10-19T01:46:14;44.78;;;31.08;;
18407;SDS011;9330;52.210;21.174;2023-10-19T01:48:47;45.20;;;32.90;;
18407;SDS011;9330;52.210;21.174;2023-10-19T01:51:14;44.25;;;31.42;;
18407;SDS011;9330;52.210;21.174;2023-10-19T01:53:41;46.72;;;32.70;;
18407;SDS011;9330;52.210;21.174;2023-10-19T01:56:10;43.25;;;31.15;;
18407;SDS011;9330;52.210;21.174;2023-10-19T01:58:38;45.42;;;32.75;;
18407;SDS011;9330;52.210;21.174;2023-10-19T02:01:05;48.50;;;31.80;;
18407;SDS011;9330;52.210;21.174;2023-10-19T02:03:43;46.75;;;31.80;;
18407;SDS011;9330;52.210;21.174;2023-10-19T02:06:09;41.03;;;30.42;;
18407;SDS011;9330;52.210;21.174;2023-10-19T02:08:42;43.92;;;31.70;;
18407;SDS011;9330;52.210;21.174;2023-10-19T02:11:15;48.45;;;32.40;;
18407;SDS011;9330;52.210;21.174;2023-10-19T02:13:44;45.42;;;32.28;;
18407;SDS011;9330;52.210;21.174;2023-10-19T02:16:11;47.08;;;31.58;;
18407;SDS011;9330;52.210;21.174;2023-10-19T02:18:39;44.67;;;31.33;;
18407;SDS011;9330;52.210;21.174;2023-10-19T02:21:07;45.45;;;30.55;;
18407;SDS011;9330;52.210;21.174;2023-10-19T02:23:37;41.92;;;30.63;;
18407;SDS011;9330;52.210;21.174;2023-10-19T02:26:04;44.08;;;30.70;;
18407;SDS011;9330;52.210;21.174;2023-10-19T02:28:31;45.92;;;31.67;;
18407;SDS011;9330;52.210;21.174;2023-10-19T02:31:02;46.15;;;31.23;;
18407;SDS011;9330;52.210;21.174;2023-10-19T02:33:36;42.70;;;31.08;;
18407;SDS011;9330;52.210;21.174;2023-10-19T02:36:04;46.30;;;31.52;;
18407;SDS011;9330;52.210;21.174;2023-10-19T02:38:32;43.05;;;30.45;;
18407;SDS011;9330;52.210;21.174;2023-10-19T02:40:59;43.90;;;31.42;;
18407;SDS011;9330;52.210;21.174;2023-10-19T02:43:25;45.47;;;31.45;;
18407;SDS011;9330;52.210;21.174;2023-10-19T02:45:54;43.67;;;30.42;;
18407;SDS011;9330;52.210;21.174;2023-10-19T02:48:20;46.35;;;31.88;;
18407;SDS011;9330;52.210;21.174;2023-10-19T02:50:49;47.13;;;32.53;;
18407;SDS011;9330;52.210;21.174;2023-10-19T02:53:14;42.70;;;31.23;;
18407;SDS011;9330;52.210;21.174;2023-10-19T02:55:44;45.03;;;32.05;;
18407;SDS011;9330;52.210;21.174;2023-10-19T02:58:11;47.53;;;32.13;;
18407;SDS011;9330;52.210;21.174;2023-10-19T03:00:38;47.70;;;33.30;;
18407;SDS011;9330;52.210;21.174;2023-10-19T03:03:06;46.78;;;32.63;;
18407;SDS011;9330;52.210;21.174;2023-10-19T03:05:32;50.78;;;33.67;;
18407;SDS011;9330;52.210;21.174;2023-10-19T03:08:00;51.40;;;33.13;;
18407;SDS011;9330;52.210;21.174;2023-10-19T03:10:30;49.03;;;33.85;;
18407;SDS011;9330;52.210;21.174;2023-10-19T03:13:07;51.60;;;35.22;;
18407;SDS011;9330;52.210;21.174;2023-10-19T03:15:33;46.85;;;33.03;;
18407;SDS011;9330;52.210;21.174;2023-10-19T03:18:00;43.67;;;32.10;;
18407;SDS011;9330;52.210;21.174;2023-10-19T03:20:28;46.95;;;33.35;;
18407;SDS011;9330;52.210;21.174;2023-10-19T03:22:58;46.25;;;32.33;;
18407;SDS011;9330;52.210;21.174;2023-10-19T03:25:26;44.33;;;31.50;;
18407;SDS011;9330;52.210;21.174;2023-10-19T03:28:20;46.38;;;31.85;;
18407;SDS011;9330;52.210;21.174;2023-10-19T03:30:50;46.40;;;32.03;;
18407;SDS011;9330;52.210;21.174;2023-10-19T03:33:20;41.33;;;30.27;;
18407;SDS011;9330;52.210;21.174;2023-10-19T03:35:53;45.70;;;32.03;;
18407;SDS011;9330;52.210;21.174;2023-10-19T03:38:20;43.58;;;30.52;;
18407;SDS011;9330;52.210;21.174;2023-10-19T03:40:48;46.15;;;31.15;;
18407;SDS011;9330;52.210;21.174;2023-10-19T03:43:23;42.53;;;29.95;;
18407;SDS011;9330;52.210;21.174;2023-10-19T03:45:52;41.25;;;31.05;;
18407;SDS011;9330;52.210;21.174;2023-10-19T03:48:20;41.20;;;29.88;;
18407;SDS011;9330;52.210;21.174;2023-10-19T03:50:52;43.65;;;29.45;;
18407;SDS011;9330;52.210;21.174;2023-10-19T03:53:22;39.30;;;29.45;;
18407;SDS011;9330;52.210;21.174;2023-10-19T03:55:49;40.13;;;28.98;;
18407;SDS011;9330;52.210;21.174;2023-10-19T03:58:17;42.08;;;28.60;;
18407;SDS011;9330;52.210;21.174;2023-10-19T04:00:45;38.55;;;27.48;;
18407;SDS011;9330;52.210;21.174;2023-10-19T04:03:13;42.97;;;29.75;;
18407;SDS011;9330;52.210;21.174;2023-10-19T04:05:42;43.95;;;30.70;;
18407;SDS011;9330;52.210;21.174;2023-10-19T04:08:13;40.38;;;28.55;;
18407;SDS011;9330;52.210;21.174;2023-10-19T04:10:45;38.78;;;28.38;;
18407;SDS011;9330;52.210;21.174;2023-10-19T04:13:32;40.25;;;27.17;;
18407;SDS011;9330;52.210;21.174;2023-10-19T04:15:59;43.10;;;29.48;;
18407;SDS011;9330;52.210;21.174;2023-10-19T04:18:26;42.90;;;29.58;;
18407;SDS011;9330;52.210;21.174;2023-10-19T04:20:53;40.38;;;28.80;;
18407;SDS011;9330;52.210;21.174;2023-10-19T04:23:24;42.58;;;30.20;;
18407;SDS011;9330;52.210;21.174;2023-10-19T04:25:53;40.58;;;29.25;;
18407;SDS011;9330;52.210;21.174;2023-10-19T04:28:22;42.50;;;28.20;;
18407;SDS011;9330;52.210;21.174;2023-10-19T04:30:57;37.10;;;28.45;;
18407;SDS011;9330;52.210;21.174;2023-10-19T04:33:28;42.63;;;29.33;;
18407;SDS011;9330;52.210;21.174;2023-10-19T04:35:55;43.88;;;30.67;;
18407;SDS011;9330;52.210;21.174;2023-10-19T04:38:26;40.80;;;28.67;;
18407;SDS011;9330;52.210;21.174;2023-10-19T04:41:02;42.47;;;28.75;;
18407;SDS011;9330;52.210;21.174;2023-10-19T04:43:32;38.55;;;28.63;;
18407;SDS011;9330;52.210;21.174;2023-10-19T04:45:59;42.67;;;29.77;;
18407;SDS011;9330;52.210;21.174;2023-10-19T04:48:26;43.08;;;30.10;;
18407;SDS011;9330;52.210;21.174;2023-10-19T04:50:56;43.35;;;29.65;;
18407;SDS011;9330;52.210;21.174;2023-10-19T04:53:23;41.00;;;28.48;;
18407;SDS011;9330;52.210;21.174;2023-10-19T04:55:51;41.28;;;27.30;;
18407;SDS011;9330;52.210;21.174;2023-10-19T04:58:18;39.20;;;27.48;;
18407;SDS011;9330;52.210;21.174;2023-10-19T05:00:45;39.83;;;28.30;;
18407;SDS011;9330;52.210;21.174;2023-10-19T05:03:11;41.42;;;26.90;;
18407;SDS011;9330;52.210;21.174;2023-10-19T05:05:43;36.90;;;26.05;;
18407;SDS011;9330;52.210;21.174;2023-10-19T05:08:10;38.10;;;26.13;;
18407;SDS011;9330;52.210;21.174;2023-10-19T05:10:37;36.83;;;25.60;;
18407;SDS011;9330;52.210;21.174;2023-10-19T05:13:06;39.80;;;26.13;;
18407;SDS011;9330;52.210;21.174;2023-10-19T05:15:34;38.83;;;27.30;;
18407;SDS011;9330;52.210;21.174;2023-10-19T05:18:01;39.25;;;26.08;;
18407;SDS011;9330;52.210;21.174;2023-10-19T05:20:29;38.38;;;25.45;;
18407;SDS011;9330;52.210;21.174;2023-10-19T05:22:57;37.75;;;25.08;;
18407;SDS011;9330;52.210;21.174;2023-10-19T05:25:25;38.40;;;26.70;;
18407;SDS011;9330;52.210;21.174;2023-10-19T05:27:52;37.30;;;25.95;;
18407;SDS011;9330;52.210;21.174;2023-10-19T05:30:20;38.25;;;26.20;;
18407;SDS011;9330;52.210;21.174;2023-10-19T05:32:48;37.33;;;25.77;;
18407;SDS011;9330;52.210;21.174;2023-10-19T05:35:15;37.10;;;26.52;;
18407;SDS011;9330;52.210;21.174;2023-10-19T05:37:48;39.22;;;26.90;;
18407;SDS011;9330;52.210;21.174;2023-10-19T05:40:15;40.20;;;26.92;;
18407;SDS011;9330;52.210;21.174;2023-10-19T05:42:43;38.28;;;26.65;;
18407;SDS011;9330;52.210;21.174;2023-10-19T05:45:11;39.28;;;27.63;;
18407;SDS011;9330;52.210;21.174;2023-10-19T05:47:42;37.53;;;26.88;;
18407;SDS011;9330;52.210;21.174;2023-10-19T05:50:09;40.85;;;26.02;;
18407;SDS011;9330;52.210;21.174;2023-10-19T05:52:39;36.45;;;25.67;;
18407;SDS011;9330;52.210;21.174;2023-10-19T05:55:07;33.45;;;24.83;;
18407;SDS011;9330;52.210;21.174;2023-10-19T05:57:35;34.70;;;24.20;;
18407;SDS011;9330;52.210;21.174;2023-10-19T06:00:06;37.70;;;25.65;;
18407;SDS011;9330;52.210;21.174;2023-10-19T06:02:37;32.60;;;24.05;;
18407;SDS011;9330;52.210;21.174;2023-10-19T06:05:07;37.83;;;25.77;;
18407;SDS011;9330;52.210;21.174;2023-10-19T06:07:34;36.38;;;24.88;;
18407;SDS011;9330;52.210;21.174;2023-10-19T06:10:01;36.67;;;25.77;;
18407;SDS011;9330;52.210;21.174;2023-10-19T06:12:30;34.63;;;25.20;;
18407;SDS011;9330;52.210;21.174;2023-10-19T06:14:57;35.13;;;25.23;;
18407;SDS011;9330;52.210;21.174;2023-10-19T06:17:25;32.95;;;24.55;;
18407;SDS011;9330;52.210;21.174;2023-10-19T06:19:53;36.70;;;25.60;;
18407;SDS011;9330;52.210;21.174;2023-10-19T06:22:21;34.95;;;26.23;;
18407;SDS011;9330;52.210;21.174;2023-10-19T06:24:48;39.40;;;26.38;;
18407;SDS011;9330;52.210;21.174;2023-10-19T06:27:15;36.20;;;26.00;;
18407;SDS011;9330;52.210;21.174;2023-10-19T06:29:41;38.33;;;25.85;;
18407;SDS011;9330;52.210;21.174;2023-10-19T06:32:09;36.40;;;25.20;;
18407;SDS011;9330;52.210;21.174;2023-10-19T06:34:38;34.70;;;24.83;;
18407;SDS011;9330;52.210;21.174;2023-10-19T06:37:04;35.35;;;26.08;;
18407;SDS011;9330;52.210;21.174;2023-10-19T06:39:35;34.47;;;25.88;;
18407;SDS011;9330;52.210;21.174;2023-10-19T06:42:05;44.17;;;27.60;;
18407;SDS011;9330;52.210;21.174;2023-10-19T06:44:34;40.50;;;29.05;;
18407;SDS011;9330;52.210;21.174;2023-10-19T06:47:02;44.97;;;29.65;;
18407;SDS011;9330;52.210;21.174;2023-10-19T06:49:31;38.17;;;27.75;;
18407;SDS011;9330;52.210;21.174;2023-10-19T06:51:59;36.85;;;28.17;;
18407;SDS011;9330;52.210;21.174;2023-10-19T06:54:26;40.88;;;28.48;;
18407;SDS011;9330;52.210;21.174;2023-10-19T06:56:55;41.03;;;29.42;;
18407;SDS011;9330;52.210;21.174;2023-10-19T06:59:22;42.17;;;28.35;;
18407;SDS011;9330;52.210;21.174;2023-10-19T07:01:49;43.08;;;28.50;;
18407;SDS011;9330;52.210;21.174;2023-10-19T07:04:16;36.78;;;25.70;;
18407;SDS011;9330;52.210;21.174;2023-10-19T07:06:43;32.60;;;25.27;;
18407;SDS011;9330;52.210;21.174;2023-10-19T07:09:12;32.45;;;23.67;;
18407;SDS011;9330;52.210;21.174;2023-10-19T07:11:40;34.60;;;25.55;;
18407;SDS011;9330;52.210;21.174;2023-10-19T07:14:11;34.92;;;26.05;;
18407;SDS011;9330;52.210;21.174;2023-10-19T07:16:38;32.22;;;24.10;;
18407;SDS011;9330;52.210;21.174;2023-10-19T07:19:05;31.35;;;23.55;;
18407;SDS011;9330;52.210;21.174;2023-10-19T07:21:34;33.45;;;24.10;;
18407;SDS011;9330;52.210;21.174;2023-10-19T07:24:03;32.47;;;23.92;;
18407;SDS011;9330;52.210;21.174;2023-10-19T07:26:34;30.90;;;22.73;;
18407;SDS011;9330;52.210;21.174;2023-10-19T07:29:08;31.55;;;23.00;;
18407;SDS011;9330;52.210;21.174;2023-10-19T07:31:36;32.97;;;23.55;;
18407;SDS011;9330;52.210;21.174;2023-10-19T07:34:03;30.40;;;22.27;;
18407;SDS011;9330;52.210;21.174;2023-10-19T07:36:33;30.85;;;22.50;;
18407;SDS011;9330;52.210;21.174;2023-10-19T07:39:01;29.52;;;23.05;;
18407;SDS011;9330;52.210;21.174;2023-10-19T07:41:29;29.92;;;21.60;;
18407;SDS011;9330;52.210;21.174;2023-10-19T07:44:01;28.70;;;21.02;;
18407;SDS011;9330;52.210;21.174;2023-10-19T07:46:30;26.92;;;21.88;;
18407;SDS011;9330;52.210;21.174;2023-10-19T07:48:58;27.50;;;20.83;;
18407;SDS011;9330;52.210;21.174;2023-10-19T07:51:26;26.50;;;21.50;;
18407;SDS011;9330;52.210;21.174;2023-10-19T07:53:53;25.45;;;19.73;;
18407;SDS011;9330;52.210;21.174;2023-10-19T07:56:20;29.58;;;20.70;;
18407;SDS011;9330;52.210;21.174;2023-10-19T07:58:47;26.92;;;20.38;;
18407;SDS011;9330;52.210;21.174;2023-10-19T08:01:14;25.42;;;19.05;;
18407;SDS011;9330;52.210;21.174;2023-10-19T08:03:41;25.13;;;19.30;;
18407;SDS011;9330;52.210;21.174;2023-10-19T08:06:09;23.10;;;18.35;;
18407;SDS011;9330;52.210;21.174;2023-10-19T08:08:37;27.35;;;18.67;;
18407;SDS011;9330;52.210;21.174;2023-10-19T08:11:04;22.48;;;18.35;;
18407;SDS011;9330;52.210;21.174;2023-10-19T08:13:31;22.65;;;17.05;;
18407;SDS011;9330;52.210;21.174;2023-10-19T08:15:58;23.08;;;17.77;;
18407;SDS011;9330;52.210;21.174;2023-10-19T08:18:25;22.08;;;16.85;;
18407;SDS011;9330;52.210;21.174;2023-10-19T08:20:52;19.95;;;15.50;;
18407;SDS011;9330;52.210;21.174;2023-10-19T08:23:20;24.52;;;16.48;;
18407;SDS011;9330;52.210;21.174;2023-10-19T08:25:52;23.52;;;16.52;;
18407;SDS011;9330;52.210;21.174;2023-10-19T08:28:19;19.80;;;15.23;;
18407;SDS011;9330;52.210;21.174;2023-10-19T08:30:47;19.00;;;15.23;;
18407;SDS011;9330;52.210;21.174;2023-10-19T08:33:22;18.48;;;14.45;;
18407;SDS011;9330;52.210;21.174;2023-10-19T08:35:51;20.42;;;14.43;;
18407;SDS011;9330;52.210;21.174;2023-10-19T08:38:20;19.33;;;14.68;;
18407;SDS011;9330;52.210;21.174;2023-10-19T08:40:48;16.48;;;13.82;;
18407;SDS011;9330;52.210;21.174;2023-10-19T08:43:15;17.15;;;13.48;;
18407;SDS011;9330;52.210;21.174;2023-10-19T08:45:45;17.48;;;12.95;;
18407;SDS011;9330;52.210;21.174;2023-10-19T08:48:12;18.15;;;13.50;;
18407;SDS011;9330;52.210;21.174;2023-10-19T08:50:39;14.77;;;12.20;;
18407;SDS011;9330;52.210;21.174;2023-10-19T08:53:07;17.73;;;12.32;;
18407;SDS011;9330;52.210;21.174;2023-10-19T08:55:35;14.45;;;11.63;;
18407;SDS011;9330;52.210;21.174;2023-10-19T08:58:02;16.58;;;12.68;;
18407;SDS011;9330;52.210;21.174;2023-10-19T09:00:42;15.63;;;12.23;;
18407;SDS011;9330;52.210;21.174;2023-10-19T09:03:12;14.10;;;10.70;;
18407;SDS011;9330;52.210;21.174;2023-10-19T09:05:41;15.02;;;11.77;;
18407;SDS011;9330;52.210;21.174;2023-10-19T09:08:09;15.13;;;11.55;;
18407;SDS011;9330;52.210;21.174;2023-10-19T09:10:42;12.35;;;10.65;;
18407;SDS011;9330;52.210;21.174;2023-10-19T09:13:11;14.57;;;10.45;;
18407;SDS011;9330;52.210;21.174;2023-10-19T09:15:40;11.48;;;9.68;;
18407;SDS011;9330;52.210;21.174;2023-10-19T09:18:14;12.30;;;8.88;;
18407;SDS011;9330;52.210;21.174;2023-10-19T09:20:42;11.18;;;8.93;;
18407;SDS011;9330;52.210;21.174;2023-10-19T09:23:18;10.00;;;8.40;;
18407;SDS011;9330;52.210;21.174;2023-10-19T09:25:47;11.27;;;7.97;;
18407;SDS011;9330;52.210;21.174;2023-10-19T09:28:14;11.13;;;8.45;;
18407;SDS011;9330;52.210;21.174;2023-10-19T09:30:42;9.65;;;7.68;;
18407;SDS011;9330;52.210;21.174;2023-10-19T09:33:09;9.23;;;7.10;;
18407;SDS011;9330;52.210;21.174;2023-10-19T09:35:38;8.73;;;6.85;;
18407;SDS011;9330;52.210;21.174;2023-10-19T09:38:08;9.75;;;7.38;;
18407;SDS011;9330;52.210;21.174;2023-10-19T09:40:35;10.25;;;7.38;;
18407;SDS011;9330;52.210;21.174;2023-10-19T09:43:06;10.25;;;7.90;;
18407;SDS011;9330;52.210;21.174;2023-10-19T09:45:40;10.50;;;7.88;;
18407;SDS011;9330;52.210;21.174;2023-10-19T09:48:08;11.23;;;7.90;;
18407;SDS011;9330;52.210;21.174;2023-10-19T09:50:42;9.05;;;7.05;;
18407;SDS011;9330;52.210;21.174;2023-10-19T09:53:10;10.57;;;7.65;;
18407;SDS011;9330;52.210;21.174;2023-10-19T09:55:37;11.00;;;7.80;;
18407;SDS011;9330;52.210;21.174;2023-10-19T09:58:09;9.93;;;7.90;;
18407;SDS011;9330;52.210;21.174;2023-10-19T10:00:42;11.00;;;7.78;;
18407;SDS011;9330;52.210;21.174;2023-10-19T10:06:08;10.68;;;7.93;;
18407;SDS011;9330;52.210;21.174;2023-10-19T10:08:37;12.43;;;8.30;;
18407;SDS011;9330;52.210;21.174;2023-10-19T10:13:53;9.75;;;7.70;;
18407;SDS011;9330;52.210;21.174;2023-10-19T10:16:21;13.98;;;8.20;;
18407;SDS011;9330;52.210;21.174;2023-10-19T10:18:50;13.25;;;8.25;;
18407;SDS011;9330;52.210;21.174;2023-10-19T10:21:24;11.07;;;8.35;;
18407;SDS011;9330;52.210;21.174;2023-10-19T10:23:52;9.45;;;7.13;;
18407;SDS011;9330;52.210;21.174;2023-10-19T10:26:20;10.85;;;8.43;;
18407;SDS011;9330;52.210;21.174;2023-10-19T10:31:40;9.85;;;7.20;;
18407;SDS011;9330;52.210;21.174;2023-10-19T10:34:08;11.27;;;7.93;;
18407;SDS011;9330;52.210;21.174;2023-10-19T10:39:25;11.57;;;7.55;;
18407;SDS011;9330;52.210;21.174;2023-10-19T10:41:55;11.95;;;7.85;;
18407;SDS011;9330;52.210;21.174;2023-10-19T10:44:37;10.50;;;7.78;;
18407;SDS011;9330;52.210;21.174;2023-10-19T10:47:06;9.88;;;8.10;;
18407;SDS011;9330;52.210;21.174;2023-10-19T10:49:49;10.50;;;7.50;;
18407;SDS011;9330;52.210;21.174;2023-10-19T10:52:25;10.27;;;7.65;;
18407;SDS011;9330;52.210;21.174;2023-10-19T10:54:54;12.18;;;8.70;;
18407;SDS011;9330;52.210;21.174;2023-10-19T10:57:23;10.40;;;7.82;;
18407;SDS011;9330;52.210;21.174;2023-10-19T11:00:04;8.82;;;7.07;;
18407;SDS011;9330;52.210;21.174;2023-10-19T11:02:33;13.00;;;8.13;;
18407;SDS011;9330;52.210;21.174;2023-10-19T11:05:01;10.20;;;7.32;;
18407;SDS011;9330;52.210;21.174;2023-10-19T11:07:28;9.10;;;7.40;;
18407;SDS011;9330;52.210;21.174;2023-10-19T11:09:57;11.43;;;7.90;;
18407;SDS011;9330;52.210;21.174;2023-10-19T11:12:23;11.35;;;7.47;;
18407;SDS011;9330;52.210;21.174;2023-10-19T11:14:54;8.90;;;6.72;;
18407;SDS011;9330;52.210;21.174;2023-10-19T11:17:24;11.85;;;7.85;;
18407;SDS011;9330;52.210;21.174;2023-10-19T11:19:55;8.55;;;7.00;;
18407;SDS011;9330;52.210;21.174;2023-10-19T11:22:22;9.73;;;6.68;;
18407;SDS011;9330;52.210;21.174;2023-10-19T11:24:51;9.15;;;7.40;;
18407;SDS011;9330;52.210;21.174;2023-10-19T11:27:22;8.00;;;7.03;;
18407;SDS011;9330;52.210;21.174;2023-10-19T11:29:58;9.90;;;7.70;;
18407;SDS011;9330;52.210;21.174;2023-10-19T11:32:36;8.55;;;6.78;;
18407;SDS011;9330;52.210;21.174;2023-10-19T11:35:05;9.25;;;7.30;;
18407;SDS011;9330;52.210;21.174;2023-10-19T11:37:44;9.77;;;7.53;;
18407;SDS011;9330;52.210;21.174;2023-10-19T11:40:14;10.85;;;7.97;;
18407;SDS011;9330;52.210;21.174;2023-10-19T11:42:42;10.43;;;7.78;;
18407;SDS011;9330;52.210;21.174;2023-10-19T11:45:09;11.00;;;7.28;;
18407;SDS011;9330;52.210;21.174;2023-10-19T11:47:38;10.15;;;7.50;;
18407;SDS011;9330;52.210;21.174;2023-10-19T11:50:05;10.63;;;7.78;;
18407;SDS011;9330;52.210;21.174;2023-10-19T11:52:32;10.65;;;7.80;;
18407;SDS011;9330;52.210;21.174;2023-10-19T11:54:59;10.32;;;7.35;;
18407;SDS011;9330;52.210;21.174;2023-10-19T11:57:26;8.73;;;7.00;;
18407;SDS011;9330;52.210;21.174;2023-10-19T11:59:53;9.27;;;7.32;;
18407;SDS011;9330;52.210;21.174;2023-10-19T12:02:20;8.90;;;6.72;;
18407;SDS011;9330;52.210;21.174;2023-10-19T12:04:48;12.38;;;7.57;;
18407;SDS011;9330;52.210;21.174;2023-10-19T12:07:15;10.40;;;8.60;;
18407;SDS011;9330;52.210;21.174;2023-10-19T12:09:41;11.25;;;8.32;;
18407;SDS011;9330;52.210;21.174;2023-10-19T12:12:10;11.18;;;8.07;;
18407;SDS011;9330;52.210;21.174;2023-10-19T12:14:38;8.80;;;7.30;;
18407;SDS011;9330;52.210;21.174;2023-10-19T12:17:05;10.75;;;7.95;;
18407;SDS011;9330;52.210;21.174;2023-10-19T12:19:32;9.73;;;8.07;;
18407;SDS011;9330;52.210;21.174;2023-10-19T12:22:01;9.35;;;7.90;;
18407;SDS011;9330;52.210;21.174;2023-10-19T12:24:28;12.18;;;8.32;;
18407;SDS011;9330;52.210;21.174;2023-10-19T12:26:55;10.27;;;8.35;;
18407;SDS011;9330;52.210;21.174;2023-10-19T12:29:22;11.23;;;8.07;;
18407;SDS011;9330;52.210;21.174;2023-10-19T12:31:50;11.52;;;8.30;;
18407;SDS011;9330;52.210;21.174;2023-10-19T12:34:17;9.70;;;7.18;;
18407;SDS011;9330;52.210;21.174;2023-10-19T12:36:44;11.15;;;8.90;;
18407;SDS011;9330;52.210;21.174;2023-10-19T12:39:13;10.27;;;7.93;;
18407;SDS011;9330;52.210;21.174;2023-10-19T12:42:00;10.27;;;8.18;;
18407;SDS011;9330;52.210;21.174;2023-10-19T12:44:28;10.23;;;8.00;;
18407;SDS011;9330;52.210;21.174;2023-10-19T12:46:57;10.57;;;7.82;;
18407;SDS011;9330;52.210;21.174;2023-10-19T12:49:24;11.02;;;7.65;;
18407;SDS011;9330;52.210;21.174;2023-10-19T12:51:53;14.32;;;8.35;;
18407;SDS011;9330;52.210;21.174;2023-10-19T12:54:22;11.75;;;8.20;;
18407;SDS011;9330;52.210;21.174;2023-10-19T12:56:49;10.57;;;8.23;;
18407;SDS011;9330;52.210;21.174;2023-10-19T12:59:18;10.88;;;8.05;;
18407;SDS011;9330;52.210;21.174;2023-10-19T13:01:45;12.95;;;9.15;;
18407;SDS011;9330;52.210;21.174;2023-10-19T13:04:13;12.25;;;8.68;;
18407;SDS011;9330;52.210;21.174;2023-10-19T13:06:41;10.75;;;8.73;;
18407;SDS011;9330;52.210;21.174;2023-10-19T13:09:08;12.43;;;8.93;;
18407;SDS011;9330;52.210;21.174;2023-10-19T13:11:37;12.02;;;9.07;;
18407;SDS011;9330;52.210;21.174;2023-10-19T13:14:08;12.63;;;8.60;;
18407;SDS011;9330;52.210;21.174;2023-10-19T13:16:37;12.48;;;8.50;;
18407;SDS011;9330;52.210;21.174;2023-10-19T13:19:04;11.32;;;8.25;;
18407;SDS011;9330;52.210;21.174;2023-10-19T13:21:38;12.18;;;8.63;;
18407;SDS011;9330;52.210;21.174;2023-10-19T13:24:07;10.27;;;8.25;;
18407;SDS011;9330;52.210;21.174;2023-10-19T13:26:35;13.30;;;8.38;;
18407;SDS011;9330;52.210;21.174;2023-10-19T13:29:04;12.18;;;8.90;;
18407;SDS011;9330;52.210;21.174;2023-10-19T13:31:31;11.18;;;8.52;;
18407;SDS011;9330;52.210;21.174;2023-10-19T13:33:59;11.02;;;8.60;;
18407;SDS011;9330;52.210;21.174;2023-10-19T13:36:28;9.52;;;7.88;;
18407;SDS011;9330;52.210;21.174;2023-10-19T13:38:55;12.45;;;8.50;;
18407;SDS011;9330;52.210;21.174;2023-10-19T13:41:21;10.60;;;8.90;;
18407;SDS011;9330;52.210;21.174;2023-10-19T13:43:48;11.20;;;8.23;;
18407;SDS011;9330;52.210;21.174;2023-10-19T13:46:17;10.68;;;8.25;;
18407;SDS011;9330;52.210;21.174;2023-10-19T13:48:45;11.52;;;8.38;;
18407;SDS011;9330;52.210;21.174;2023-10-19T13:51:15;11.60;;;8.13;;
18407;SDS011;9330;52.210;21.174;2023-10-19T13:53:44;12.88;;;8.93;;
18407;SDS011;9330;52.210;21.174;2023-10-19T13:56:11;15.52;;;10.90;;
18407;SDS011;9330;52.210;21.174;2023-10-19T13:58:39;18.33;;;11.50;;
18407;SDS011;9330;52.210;21.174;2023-10-19T14:01:06;16.02;;;11.68;;
18407;SDS011;9330;52.210;21.174;2023-10-19T14:03:38;17.58;;;11.95;;
18407;SDS011;9330;52.210;21.174;2023-10-19T14:06:05;15.45;;;11.52;;
18407;SDS011;9330;52.210;21.174;2023-10-19T14:08:37;15.82;;;11.27;;
18407;SDS011;9330;52.210;21.174;2023-10-19T14:11:04;15.48;;;10.93;;
18407;SDS011;9330;52.210;21.174;2023-10-19T14:13:31;12.75;;;9.50;;
18407;SDS011;9330;52.210;21.174;2023-10-19T14:15:58;15.38;;;9.80;;
18407;SDS011;9330;52.210;21.174;2023-10-19T14:18:25;16.40;;;8.63;;
18407;SDS011;9330;52.210;21.174;2023-10-19T14:20:53;11.57;;;9.15;;
18407;SDS011;9330;52.210;21.174;2023-10-19T14:23:20;13.77;;;9.52;;
18407;SDS011;9330;52.210;21.174;2023-10-19T14:25:49;13.63;;;9.40;;
18407;SDS011;9330;52.210;21.174;2023-10-19T14:28:16;13.63;;;9.80;;
18407;SDS011;9330;52.210;21.174;2023-10-19T14:30:43;12.75;;;9.80;;
18407;SDS011;9330;52.210;21.174;2023-10-19T14:33:10;17.63;;;11.35;;
18407;SDS011;9330;52.210;21.174;2023-10-19T14:35:38;17.98;;;11.27;;
18407;SDS011;9330;52.210;21.174;2023-10-19T14:38:08;18.85;;;12.40;;
18407;SDS011;9330;52.210;21.174;2023-10-19T14:40:38;15.63;;;11.48;;
18407;SDS011;9330;52.210;21.174;2023-10-19T14:43:08;18.60;;;11.57;;
18407;SDS011;9330;52.210;21.174;2023-10-19T14:45:35;17.90;;;12.48;;
18407;SDS011;9330;52.210;21.174;2023-10-19T14:48:02;20.55;;;12.82;;